Time;durP1;ratioP1;P1;durP2;ratioP2;P2;SDS_P1;SDS_P2;PMS_P1;PMS_P2;Temp;Humidity;BMP_temperature;BMP_pressure;BME280_temperature;BME280_humidity;BME280_pressure;Samples;Min_cycle;Max_cycle;Signal;HPM_P1;HPM_P2
2022/03/24 00:01:09;;;;;;;37.43;31.93;;;;;;;;;;4995041;28;20979;-73
2022/03/24 00:03:34;;;;;;;36.93;30.50;;;;;;;;;;4993526;28;20863;-72
2022/03/24 00:05:59;;;;;;;38.43;32.67;;;;;;;;;;4990912;28;20177;-72
2022/03/24 00:08:25;;;;;;;36.07;31.07;;;;;;;;;;4989850;28;20265;-71
2022/03/24 00:10:50;;;;;;;37.00;30.43;;;;;;;;;;4992598;28;20268;-71
2022/03/24 00:13:15;;;;;;;39.43;32.17;;;;;;;;;;4995950;28;20331;-72
2022/03/24 00:15:40;;;;;;;40.37;32.83;;;;;;;;;;4991648;28;20384;-72
2022/03/24 00:18:07;;;;;;;37.00;32.17;;;;;;;;;;4993285;28;20200;-72
2022/03/24 00:20:34;;;;;;;35.50;30.70;;;;;;;;;;4989004;28;20201;-72
2022/03/24 00:22:59;;;;;;;36.10;30.13;;;;;;;;;;4992208;28;20865;-71
2022/03/24 00:25:25;;;;;;;36.33;31.90;;;;;;;;;;4991195;28;20463;-71
2022/03/24 00:27:50;;;;;;;37.97;31.10;;;;;;;;;;4995486;28;20181;-72
2022/03/24 00:30:15;;;;;;;36.27;31.60;;;;;;;;;;4991659;28;20196;-72
2022/03/24 00:32:40;;;;;;;34.90;30.50;;;;;;;;;;4992431;28;20185;-71
2022/03/24 00:35:08;;;;;;;38.83;31.47;;;;;;;;;;4992805;28;20205;-71
2022/03/24 00:37:33;;;;;;;34.80;29.70;;;;;;;;;;4989849;28;20193;-72
2022/03/24 00:40:06;;;;;;;36.07;31.07;;;;;;;;;;4992078;28;20470;-71
2022/03/24 00:42:31;;;;;;;43.93;31.80;;;;;;;;;;4991687;28;20785;-71
2022/03/24 00:44:57;;;;;;;34.00;30.27;;;;;;;;;;5007255;28;20452;-72
2022/03/24 00:47:22;;;;;;;35.60;30.67;;;;;;;;;;5006072;28;20177;-72
2022/03/24 00:49:48;;;;;;;38.40;31.00;;;;;;;;;;4987915;28;20424;-72
2022/03/24 00:52:13;;;;;;;37.00;31.13;;;;;;;;;;4994765;28;20174;-73
2022/03/24 00:54:38;;;;;;;40.00;32.77;;;;;;;;;;4993215;28;20200;-73
2022/03/24 00:57:04;;;;;;;40.93;33.57;;;;;;;;;;4997170;28;20558;-71
2022/03/24 00:59:29;;;;;;;37.00;31.73;;;;;;;;;;4992147;28;20273;-72
2022/03/24 01:01:55;;;;;;;37.30;31.57;;;;;;;;;;4995162;28;20552;-72
2022/03/24 01:04:20;;;;;;;40.20;30.50;;;;;;;;;;5004080;22;21170;-68
2022/03/24 01:06:46;;;;;;;38.00;31.70;;;;;;;;;;4996357;28;20189;-68
2022/03/24 01:09:11;;;;;;;39.10;32.53;;;;;;;;;;5001181;28;20188;-68
2022/03/24 01:11:37;;;;;;;37.53;30.23;;;;;;;;;;4993855;28;20224;-68
2022/03/24 01:14:04;;;;;;;36.70;30.60;;;;;;;;;;4984002;28;20688;-66
2022/03/24 01:16:30;;;;;;;41.57;34.30;;;;;;;;;;4980181;28;20201;-65
2022/03/24 01:18:55;;;;;;;36.43;31.77;;;;;;;;;;4995816;28;20448;-65
2022/03/24 01:21:21;;;;;;;38.40;30.00;;;;;;;;;;4997728;28;20719;-66
2022/03/24 01:23:46;;;;;;;38.70;30.40;;;;;;;;;;4997698;28;20189;-65
2022/03/24 01:26:12;;;;;;;37.50;31.30;;;;;;;;;;4993079;28;20185;-66
2022/03/24 01:28:38;;;;;;;40.90;31.57;;;;;;;;;;4998887;28;20213;-66
2022/03/24 01:31:04;;;;;;;33.87;29.63;;;;;;;;;;4991166;28;20459;-66
2022/03/24 01:33:29;;;;;;;38.67;31.30;;;;;;;;;;4999117;28;20545;-66
2022/03/24 01:35:55;;;;;;;36.27;31.10;;;;;;;;;;4998058;28;20192;-66
2022/03/24 01:38:21;;;;;;;36.90;31.40;;;;;;;;;;4999117;28;20177;-66
2022/03/24 01:40:47;;;;;;;35.03;29.90;;;;;;;;;;4994260;28;20209;-66
2022/03/24 01:43:12;;;;;;;39.37;33.00;;;;;;;;;;4998463;28;20457;-66
2022/03/24 01:45:38;;;;;;;36.67;31.73;;;;;;;;;;4999643;28;20204;-66
2022/03/24 01:48:04;;;;;;;36.83;31.37;;;;;;;;;;5000650;28;20185;-66
2022/03/24 01:50:30;;;;;;;41.17;31.30;;;;;;;;;;4996652;28;20189;-66
2022/03/24 01:52:55;;;;;;;38.67;29.93;;;;;;;;;;5000891;28;20443;-66
2022/03/24 01:55:20;;;;;;;36.57;30.77;;;;;;;;;;4996150;28;20210;-66
2022/03/24 01:57:49;;;;;;;39.93;31.90;;;;;;;;;;4992107;28;20288;-65
2022/03/24 02:00:14;;;;;;;36.80;31.77;;;;;;;;;;4994671;28;20735;-66
2022/03/24 02:02:41;;;;;;;36.90;31.33;;;;;;;;;;4992157;28;20448;-66
2022/03/24 02:05:07;;;;;;;36.47;30.93;;;;;;;;;;4997204;28;20591;-65
2022/03/24 02:07:34;;;;;;;37.13;30.50;;;;;;;;;;4992113;28;20494;-66
2022/03/24 02:09:59;;;;;;;39.03;31.60;;;;;;;;;;4996583;28;20454;-65
2022/03/24 02:12:25;;;;;;;38.40;31.47;;;;;;;;;;4995009;28;20857;-66
2022/03/24 02:14:52;;;;;;;36.63;30.60;;;;;;;;;;4992252;28;20564;-67
2022/03/24 02:17:20;;;;;;;40.13;31.20;;;;;;;;;;4996332;28;20653;-67
2022/03/24 02:19:45;;;;;;;35.63;30.47;;;;;;;;;;4991198;28;20436;-66
2022/03/24 02:22:14;;;;;;;40.33;31.83;;;;;;;;;;4996549;28;20817;-67
2022/03/24 02:24:39;;;;;;;38.23;31.93;;;;;;;;;;4991534;28;20213;-67
2022/03/24 02:27:05;;;;;;;37.57;32.13;;;;;;;;;;4997171;28;20442;-67
2022/03/24 02:29:30;;;;;;;35.67;31.00;;;;;;;;;;4995417;28;20180;-67
2022/03/24 02:31:55;;;;;;;38.57;31.17;;;;;;;;;;4994119;28;20276;-67
2022/03/24 02:34:38;;;;;;;39.83;33.00;;;;;;;;;;4996122;28;20211;-67
2022/03/24 02:37:13;;;;;;;37.70;32.23;;;;;;;;;;4997017;28;20181;-68
2022/03/24 02:39:40;;;;;;;40.87;32.77;;;;;;;;;;4994320;28;20915;-68
2022/03/24 02:42:06;;;;;;;42.63;35.17;;;;;;;;;;4993782;28;20468;-71
2022/03/24 02:44:32;;;;;;;40.03;32.30;;;;;;;;;;4994289;28;20463;-68
2022/03/24 02:47:00;;;;;;;39.70;32.60;;;;;;;;;;4993921;28;21323;-68
2022/03/24 02:49:27;;;;;;;37.80;31.93;;;;;;;;;;4991014;28;20185;-68
2022/03/24 02:51:54;;;;;;;39.53;32.77;;;;;;;;;;4992695;28;20428;-68
2022/03/24 02:54:20;;;;;;;41.03;35.33;;;;;;;;;;4996174;28;20854;-68
2022/03/24 02:56:45;;;;;;;43.53;34.43;;;;;;;;;;4995273;28;20432;-68
2022/03/24 02:59:12;;;;;;;40.73;33.87;;;;;;;;;;4990673;28;20451;-68
2022/03/24 03:01:38;;;;;;;41.63;31.83;;;;;;;;;;4991489;28;20251;-68
2022/03/24 03:04:05;;;;;;;37.37;32.37;;;;;;;;;;4994518;28;20460;-68
2022/03/24 03:06:32;;;;;;;40.23;33.33;;;;;;;;;;4990605;28;20442;-68
2022/03/24 03:08:57;;;;;;;39.30;33.00;;;;;;;;;;4993249;28;20439;-68
2022/03/24 03:11:23;;;;;;;40.83;32.90;;;;;;;;;;4993165;28;20439;-68
2022/03/24 03:13:48;;;;;;;39.20;32.30;;;;;;;;;;4986783;28;20185;-68
2022/03/24 03:16:14;;;;;;;41.47;33.90;;;;;;;;;;4993572;28;20191;-68
2022/03/24 03:18:41;;;;;;;43.63;34.40;;;;;;;;;;4997058;28;20641;-68
2022/03/24 03:21:08;;;;;;;39.70;33.83;;;;;;;;;;4981900;28;20568;-68
2022/03/24 03:23:34;;;;;;;41.63;33.30;;;;;;;;;;4989807;28;20447;-68
2022/03/24 03:25:59;;;;;;;41.27;34.33;;;;;;;;;;4988697;28;20440;-69
2022/03/24 03:28:25;;;;;;;40.23;33.23;;;;;;;;;;4992361;28;20188;-68
2022/03/24 03:30:50;;;;;;;42.67;35.20;;;;;;;;;;4994827;28;20216;-69
2022/03/24 03:33:15;;;;;;;42.60;34.43;;;;;;;;;;4991771;28;20649;-68
2022/03/24 03:35:41;;;;;;;44.53;36.03;;;;;;;;;;4994999;28;20230;-69
2022/03/24 03:38:10;;;;;;;43.87;36.03;;;;;;;;;;4990028;28;20189;-68
2022/03/24 03:40:35;;;;;;;39.77;31.67;;;;;;;;;;4983178;28;20212;-69
2022/03/24 03:43:01;;;;;;;40.20;32.70;;;;;;;;;;4985836;28;20830;-68
2022/03/24 03:45:26;;;;;;;38.37;33.40;;;;;;;;;;4991337;28;20208;-68
2022/03/24 03:47:52;;;;;;;43.47;34.60;;;;;;;;;;4994440;28;20177;-68
2022/03/24 03:50:17;;;;;;;38.40;32.67;;;;;;;;;;4995670;28;20213;-68
2022/03/24 03:52:43;;;;;;;39.30;32.27;;;;;;;;;;4989681;28;20472;-68
2022/03/24 03:55:10;;;;;;;39.50;31.60;;;;;;;;;;4998714;28;20208;-68
2022/03/24 03:57:35;;;;;;;40.20;33.07;;;;;;;;;;4993049;28;20181;-69
2022/03/24 04:00:52;;;;;;;41.07;34.67;;;;;;;;;;4993137;28;20534;-68
2022/03/24 04:02:46;;;;;;;44.13;34.10;;;;;;;;;;4991043;28;20196;-68
2022/03/24 04:05:11;;;;;;;43.30;33.67;;;;;;;;;;4996118;28;20452;-68
2022/03/24 04:07:36;;;;;;;39.80;32.80;;;;;;;;;;4994707;28;20659;-68
2022/03/24 04:10:01;;;;;;;42.23;33.80;;;;;;;;;;4992218;28;20197;-68
2022/03/24 04:12:27;;;;;;;40.20;33.73;;;;;;;;;;4991203;28;20216;-69
2022/03/24 04:14:52;;;;;;;46.20;35.30;;;;;;;;;;5006306;28;20576;-69
2022/03/24 04:17:18;;;;;;;45.50;35.83;;;;;;;;;;4994690;28;20272;-69
2022/03/24 04:19:43;;;;;;;43.30;35.67;;;;;;;;;;4994224;28;20276;-69
2022/03/24 04:22:08;;;;;;;43.03;35.40;;;;;;;;;;4993735;28;20173;-68
2022/03/24 04:24:34;;;;;;;44.60;35.93;;;;;;;;;;4992732;28;20216;-68
2022/03/24 04:26:59;;;;;;;43.93;35.10;;;;;;;;;;4994447;28;20182;-69
2022/03/24 04:29:25;;;;;;;45.30;35.77;;;;;;;;;;4994032;28;20180;-69
2022/03/24 04:31:50;;;;;;;47.43;36.27;;;;;;;;;;4991743;28;20181;-69
2022/03/24 04:34:16;;;;;;;42.97;36.17;;;;;;;;;;4990600;28;20462;-69
2022/03/24 04:36:41;;;;;;;41.93;33.87;;;;;;;;;;4998071;28;20730;-67
2022/03/24 04:39:06;;;;;;;42.83;35.00;;;;;;;;;;4992027;28;20189;-68
2022/03/24 04:41:32;;;;;;;41.40;34.40;;;;;;;;;;4998834;28;20213;-68
2022/03/24 04:43:57;;;;;;;42.60;34.40;;;;;;;;;;4999058;28;20251;-68
2022/03/24 04:46:23;;;;;;;41.40;34.37;;;;;;;;;;4998344;28;20264;-68
2022/03/24 04:48:48;;;;;;;39.90;33.00;;;;;;;;;;4994158;28;20303;-69
2022/03/24 04:51:14;;;;;;;40.10;32.83;;;;;;;;;;4996068;28;20439;-69
2022/03/24 04:53:39;;;;;;;41.60;33.90;;;;;;;;;;4999943;28;20193;-69
2022/03/24 04:56:05;;;;;;;46.13;37.43;;;;;;;;;;4995120;28;20225;-68
2022/03/24 04:58:30;;;;;;;42.90;34.27;;;;;;;;;;4994669;28;20188;-69
2022/03/24 05:00:55;;;;;;;41.33;34.57;;;;;;;;;;4998878;28;20205;-68
2022/03/24 05:03:21;;;;;;;40.80;33.50;;;;;;;;;;4995026;28;20174;-68
2022/03/24 05:05:46;;;;;;;41.23;34.63;;;;;;;;;;4995241;28;20240;-67
2022/03/24 05:08:11;;;;;;;45.20;33.70;;;;;;;;;;4996808;28;20193;-68
2022/03/24 05:10:36;;;;;;;42.77;34.60;;;;;;;;;;4998914;28;20184;-68
2022/03/24 05:13:02;;;;;;;41.43;33.27;;;;;;;;;;4997062;28;20558;-68
2022/03/24 05:15:27;;;;;;;44.50;36.03;;;;;;;;;;4989961;28;20710;-69
2022/03/24 05:17:53;;;;;;;49.47;37.50;;;;;;;;;;4995788;28;20192;-69
2022/03/24 05:20:18;;;;;;;43.23;34.63;;;;;;;;;;4996864;28;20284;-67
2022/03/24 05:22:43;;;;;;;48.03;37.10;;;;;;;;;;5000342;28;20236;-68
2022/03/24 05:25:09;;;;;;;45.00;35.60;;;;;;;;;;4995940;28;20212;-68
2022/03/24 05:27:35;;;;;;;41.70;33.47;;;;;;;;;;4997476;28;20181;-68
2022/03/24 05:30:00;;;;;;;44.83;36.27;;;;;;;;;;4994350;28;20200;-68
2022/03/24 05:32:26;;;;;;;39.17;32.90;;;;;;;;;;4993957;28;20476;-68
2022/03/24 05:34:52;;;;;;;44.60;34.43;;;;;;;;;;4999417;28;20213;-69
2022/03/24 05:37:17;;;;;;;41.00;33.40;;;;;;;;;;4994180;28;20811;-69
2022/03/24 05:39:43;;;;;;;43.57;34.10;;;;;;;;;;4999251;28;20182;-69
2022/03/24 05:42:08;;;;;;;42.17;34.60;;;;;;;;;;4997019;28;20184;-69
2022/03/24 05:44:33;;;;;;;40.13;32.20;;;;;;;;;;4989716;28;20655;-68
2022/03/24 05:46:59;;;;;;;42.13;33.60;;;;;;;;;;4997556;28;20181;-68
2022/03/24 05:49:24;;;;;;;44.23;33.80;;;;;;;;;;4997811;28;20673;-68
2022/03/24 05:51:50;;;;;;;46.10;35.87;;;;;;;;;;5002489;28;21458;-69
2022/03/24 05:54:16;;;;;;;49.03;34.67;;;;;;;;;;4994677;28;20220;-68
2022/03/24 05:56:42;;;;;;;41.73;33.53;;;;;;;;;;4991578;28;20972;-68
2022/03/24 05:59:07;;;;;;;39.53;33.00;;;;;;;;;;4994010;28;20559;-68
2022/03/24 06:01:33;;;;;;;43.13;34.13;;;;;;;;;;4996220;28;20196;-68
2022/03/24 06:04:00;;;;;;;45.73;34.47;;;;;;;;;;4992300;28;25485;-68
2022/03/24 06:06:26;;;;;;;41.10;33.47;;;;;;;;;;4996217;28;20429;-68
2022/03/24 06:08:52;;;;;;;40.70;34.80;;;;;;;;;;4997714;28;20428;-68
2022/03/24 06:11:18;;;;;;;38.27;32.47;;;;;;;;;;4989739;28;20424;-68
2022/03/24 06:13:43;;;;;;;39.53;31.50;;;;;;;;;;4996284;28;20946;-68
2022/03/24 06:16:09;;;;;;;40.60;32.17;;;;;;;;;;4989832;28;20188;-68
2022/03/24 06:18:36;;;;;;;43.57;34.30;;;;;;;;;;4992027;28;20204;-67
2022/03/24 06:21:02;;;;;;;40.10;33.80;;;;;;;;;;4988845;28;20201;-69
2022/03/24 06:23:27;;;;;;;43.20;35.40;;;;;;;;;;4981184;28;20438;-67
2022/03/24 06:25:52;;;;;;;44.60;34.20;;;;;;;;;;4975374;28;20236;-67
2022/03/24 06:28:18;;;;;;;41.77;33.53;;;;;;;;;;4982142;28;20180;-67
2022/03/24 06:30:44;;;;;;;43.40;35.33;;;;;;;;;;4975816;28;20185;-67
2022/03/24 06:33:10;;;;;;;38.80;33.40;;;;;;;;;;4986327;28;20195;-67
2022/03/24 06:35:35;;;;;;;47.13;36.57;;;;;;;;;;4983167;28;20460;-67
2022/03/24 06:38:00;;;;;;;49.17;35.80;;;;;;;;;;4989458;28;20186;-68
2022/03/24 06:40:26;;;;;;;49.77;39.13;;;;;;;;;;4983974;28;21589;-67
2022/03/24 06:42:52;;;;;;;47.47;36.50;;;;;;;;;;4984677;28;20867;-68
2022/03/24 06:45:18;;;;;;;47.13;35.10;;;;;;;;;;4990765;28;20233;-68
2022/03/24 06:47:43;;;;;;;42.73;34.67;;;;;;;;;;4990991;28;20610;-67
2022/03/24 06:50:12;;;;;;;47.87;35.43;;;;;;;;;;4993956;28;20192;-67
2022/03/24 06:52:38;;;;;;;51.07;37.50;;;;;;;;;;4992410;28;20288;-67
2022/03/24 06:55:05;;;;;;;44.23;34.83;;;;;;;;;;4985584;28;20473;-68
2022/03/24 06:57:30;;;;;;;45.67;35.60;;;;;;;;;;4985504;28;20193;-67
2022/03/24 06:59:56;;;;;;;45.77;33.70;;;;;;;;;;4984997;28;20476;-68
2022/03/24 07:02:21;;;;;;;45.43;34.50;;;;;;;;;;4985867;28;20856;-68
2022/03/24 07:04:47;;;;;;;47.10;34.80;;;;;;;;;;4990914;28;20758;-67
2022/03/24 07:07:12;;;;;;;44.77;35.43;;;;;;;;;;4993214;22;20240;-73
2022/03/24 07:09:37;;;;;;;44.57;35.00;;;;;;;;;;4974690;28;21079;-73
2022/03/24 07:12:03;;;;;;;46.33;36.10;;;;;;;;;;4969716;28;20189;-73
2022/03/24 07:14:28;;;;;;;41.23;33.23;;;;;;;;;;4972607;28;20240;-72
2022/03/24 07:16:54;;;;;;;49.07;35.70;;;;;;;;;;4964746;28;20264;-73
2022/03/24 07:19:19;;;;;;;43.70;33.57;;;;;;;;;;4968921;28;20177;-72
2022/03/24 07:21:45;;;;;;;47.07;32.20;;;;;;;;;;4969023;28;20213;-73
2022/03/24 07:24:10;;;;;;;40.87;31.43;;;;;;;;;;4971608;28;20543;-72
2022/03/24 07:26:36;;;;;;;41.87;33.50;;;;;;;;;;4965691;28;20198;-72
2022/03/24 07:29:01;;;;;;;45.27;33.60;;;;;;;;;;4954928;28;20621;-72
2022/03/24 07:31:27;;;;;;;41.80;32.13;;;;;;;;;;4967223;28;20200;-71
2022/03/24 07:33:53;;;;;;;46.87;32.20;;;;;;;;;;4967560;28;20193;-73
2022/03/24 07:36:22;;;;;;;42.13;31.53;;;;;;;;;;4961814;28;20280;-71
2022/03/24 07:38:47;;;;;;;43.93;32.20;;;;;;;;;;4959387;28;20448;-72
2022/03/24 07:41:13;;;;;;;39.83;32.17;;;;;;;;;;4966343;28;20971;-73
2022/03/24 07:43:38;;;;;;;40.10;30.33;;;;;;;;;;4968897;28;20605;-74
2022/03/24 07:46:04;;;;;;;38.20;28.97;;;;;;;;;;4969231;28;20685;-74
2022/03/24 07:48:30;;;;;;;41.20;30.80;;;;;;;;;;4966376;28;20238;-73
2022/03/24 07:50:57;;;;;;;37.70;30.43;;;;;;;;;;4965093;28;20444;-73
2022/03/24 07:53:28;;;;;;;40.07;31.60;;;;;;;;;;4969781;28;20794;-72
2022/03/24 07:55:54;;;;;;;38.43;30.93;;;;;;;;;;4968286;28;20816;-74
2022/03/24 07:58:21;;;;;;;43.40;30.90;;;;;;;;;;4965509;28;20444;-73
2022/03/24 08:00:46;;;;;;;41.10;27.67;;;;;;;;;;4969071;28;20471;-73
2022/03/24 08:03:13;;;;;;;40.00;30.53;;;;;;;;;;4964326;28;20448;-73
2022/03/24 08:05:38;;;;;;;41.37;28.53;;;;;;;;;;4966265;28;20243;-73
2022/03/24 08:08:04;;;;;;;45.07;30.53;;;;;;;;;;4965968;28;20464;-73
2022/03/24 08:10:29;;;;;;;32.77;25.23;;;;;;;;;;4974617;28;20186;-73
2022/03/24 08:12:55;;;;;;;32.63;26.10;;;;;;;;;;4973282;28;20190;-73
2022/03/24 08:15:20;;;;;;;35.23;27.83;;;;;;;;;;4974229;28;20189;-72
2022/03/24 08:17:45;;;;;;;33.07;26.73;;;;;;;;;;4969864;28;20559;-72
2022/03/24 08:20:11;;;;;;;37.20;27.73;;;;;;;;;;4968727;28;20284;-72
2022/03/24 08:22:36;;;;;;;33.60;24.83;;;;;;;;;;4969484;28;20190;-73
2022/03/24 08:25:02;;;;;;;36.57;26.90;;;;;;;;;;4977487;28;20292;-72
2022/03/24 08:27:28;;;;;;;36.33;26.33;;;;;;;;;;4972304;28;20320;-73
2022/03/24 08:29:53;;;;;;;32.40;25.23;;;;;;;;;;4972272;28;20527;-71
2022/03/24 08:32:18;;;;;;;31.80;25.37;;;;;;;;;;4972435;28;20178;-72
2022/03/24 08:34:43;;;;;;;32.80;26.33;;;;;;;;;;4974848;28;20183;-74
2022/03/24 08:37:08;;;;;;;29.17;24.00;;;;;;;;;;4973720;28;20201;-72
2022/03/24 08:39:34;;;;;;;31.10;24.40;;;;;;;;;;4969174;28;20178;-71
2022/03/24 08:41:59;;;;;;;32.70;25.10;;;;;;;;;;4973797;28;20681;-72
2022/03/24 08:44:24;;;;;;;29.43;23.67;;;;;;;;;;4974630;28;20185;-72
2022/03/24 08:46:50;;;;;;;30.43;24.27;;;;;;;;;;4974355;28;20412;-71
2022/03/24 08:49:15;;;;;;;33.37;26.53;;;;;;;;;;4967680;28;20178;-71
2022/03/24 08:51:41;;;;;;;33.17;23.60;;;;;;;;;;4968011;28;20650;-71
2022/03/24 08:54:06;;;;;;;28.40;22.60;;;;;;;;;;4975901;28;20193;-73
2022/03/24 08:56:31;;;;;;;30.73;22.63;;;;;;;;;;4977136;28;20205;-71
2022/03/24 08:58:57;;;;;;;31.77;23.23;;;;;;;;;;4979797;28;20690;-73
2022/03/24 09:01:22;;;;;;;29.80;23.23;;;;;;;;;;4969410;28;20202;-71
2022/03/24 09:03:49;;;;;;;28.70;22.43;;;;;;;;;;4974963;28;20256;-73
2022/03/24 09:06:15;;;;;;;31.30;23.67;;;;;;;;;;4986363;28;20224;-73
2022/03/24 09:08:40;;;;;;;29.23;22.60;;;;;;;;;;4969869;28;20428;-73
2022/03/24 09:11:06;;;;;;;30.63;23.40;;;;;;;;;;4968466;28;20198;-73
2022/03/24 09:13:31;;;;;;;28.53;21.73;;;;;;;;;;4975387;28;20190;-73
2022/03/24 09:15:56;;;;;;;24.57;20.57;;;;;;;;;;4970853;28;20655;-74
2022/03/24 09:18:21;;;;;;;28.53;21.23;;;;;;;;;;4968597;28;20178;-74
2022/03/24 09:20:47;;;;;;;30.10;22.30;;;;;;;;;;4967998;28;20292;-74
2022/03/24 09:23:12;;;;;;;28.60;21.53;;;;;;;;;;4968655;28;20540;-74
2022/03/24 09:25:38;;;;;;;31.80;22.87;;;;;;;;;;4972260;28;20202;-73
2022/03/24 09:28:03;;;;;;;29.30;22.30;;;;;;;;;;4972419;28;20207;-74
2022/03/24 09:30:29;;;;;;;29.70;22.33;;;;;;;;;;4982150;28;20280;-73
2022/03/24 09:32:54;;;;;;;30.70;22.73;;;;;;;;;;4968033;28;20247;-73
2022/03/24 09:35:20;;;;;;;28.40;21.40;;;;;;;;;;4965061;28;20836;-74
2022/03/24 09:37:45;;;;;;;28.50;22.10;;;;;;;;;;4969367;28;21759;-73
2022/03/24 09:40:11;;;;;;;27.03;21.83;;;;;;;;;;4969110;28;20187;-73
2022/03/24 09:42:37;;;;;;;28.90;21.20;;;;;;;;;;4964664;28;20243;-74
2022/03/24 09:45:05;;;;;;;30.33;22.03;;;;;;;;;;4971349;28;20437;-73
2022/03/24 09:47:30;;;;;;;25.23;19.83;;;;;;;;;;4967457;28;20228;-73
2022/03/24 09:49:56;;;;;;;27.53;21.40;;;;;;;;;;4964857;28;20448;-75
2022/03/24 09:52:22;;;;;;;29.65;20.75;;;;;;;;;;4957299;28;20266;-75
2022/03/24 09:54:48;;;;;;;27.57;21.40;;;;;;;;;;4962600;28;20190;-75
2022/03/24 09:57:13;;;;;;;26.70;20.60;;;;;;;;;;4971778;28;20221;-74
2022/03/24 09:59:38;;;;;;;30.60;22.83;;;;;;;;;;4967825;28;20185;-75
2022/03/24 10:02:05;;;;;;;31.17;21.03;;;;;;;;;;4966937;28;20210;-74
2022/03/24 10:04:45;;;;;;;27.67;20.90;;;;;;;;;;4963959;28;20243;-74
2022/03/24 10:07:11;;;;;;;29.03;21.83;;;;;;;;;;4970139;28;20896;-74
2022/03/24 10:09:36;;;;;;;30.10;21.30;;;;;;;;;;4964642;28;20567;-73
2022/03/24 10:12:03;;;;;;;28.07;20.83;;;;;;;;;;4977692;28;20209;-75
2022/03/24 10:14:29;;;;;;;28.23;20.60;;;;;;;;;;4973868;28;20190;-73
2022/03/24 10:16:54;;;;;;;33.53;20.37;;;;;;;;;;4969947;28;20475;-73
2022/03/24 10:19:20;;;;;;;24.53;19.87;;;;;;;;;;4970993;28;20244;-73
2022/03/24 10:21:46;;;;;;;27.93;20.50;;;;;;;;;;4988776;28;20634;-73
2022/03/24 10:24:15;;;;;;;25.93;20.50;;;;;;;;;;4971137;28;20188;-74
2022/03/24 10:26:44;;;;;;;26.73;20.20;;;;;;;;;;4972737;28;20571;-74
2022/03/24 10:29:11;;;;;;;30.40;21.67;;;;;;;;;;4969295;28;20444;-74
2022/03/24 10:31:36;;;;;;;25.00;20.00;;;;;;;;;;4979415;28;20444;-74
2022/03/24 10:34:02;;;;;;;28.90;20.03;;;;;;;;;;4968628;28;20448;-73
2022/03/24 10:36:27;;;;;;;29.20;21.57;;;;;;;;;;4968556;28;20221;-73
2022/03/24 10:38:54;;;;;;;30.37;23.40;;;;;;;;;;4974610;28;20990;-74
2022/03/24 10:41:22;;;;;;;26.87;21.10;;;;;;;;;;4976706;28;20206;-73
2022/03/24 10:43:51;;;;;;;30.13;21.93;;;;;;;;;;4966307;28;20437;-73
2022/03/24 10:46:16;;;;;;;26.50;20.67;;;;;;;;;;4966044;28;20998;-73
2022/03/24 10:48:42;;;;;;;26.17;20.00;;;;;;;;;;4969677;28;20445;-74
2022/03/24 10:51:08;;;;;;;26.03;19.40;;;;;;;;;;4967640;28;20992;-73
2022/03/24 10:53:40;;;;;;;24.37;19.50;;;;;;;;;;4964947;28;20476;-73
2022/03/24 10:56:13;;;;;;;26.80;20.77;;;;;;;;;;4967007;28;20272;-73
2022/03/24 10:58:43;;;;;;;28.47;20.20;;;;;;;;;;4964003;28;20453;-74
2022/03/24 11:01:09;;;;;;;28.50;19.53;;;;;;;;;;4962222;28;20889;-73
2022/03/24 11:03:35;;;;;;;24.97;20.07;;;;;;;;;;4968346;28;20507;-74
2022/03/24 11:06:13;;;;;;;24.90;20.47;;;;;;;;;;4969542;28;22288;-73
2022/03/24 11:08:39;;;;;;;27.10;20.10;;;;;;;;;;4968899;28;20189;-73
2022/03/24 11:11:05;;;;;;;27.70;20.13;;;;;;;;;;4971909;28;20495;-74
2022/03/24 11:13:39;;;;;;;26.57;20.27;;;;;;;;;;4975963;28;20433;-74
2022/03/24 11:16:05;;;;;;;25.00;20.57;;;;;;;;;;4973845;28;20634;-73
2022/03/24 11:18:30;;;;;;;24.70;20.13;;;;;;;;;;4979892;28;20948;-73
2022/03/24 11:21:00;;;;;;;23.30;18.80;;;;;;;;;;4973475;28;20793;-73
2022/03/24 11:23:29;;;;;;;26.60;19.97;;;;;;;;;;4972644;28;20228;-73
2022/03/24 11:25:57;;;;;;;24.40;19.47;;;;;;;;;;4975389;28;20456;-74
2022/03/24 11:28:22;;;;;;;23.07;18.40;;;;;;;;;;4969908;28;20768;-72
2022/03/24 11:30:48;;;;;;;26.47;20.77;;;;;;;;;;4968272;28;21408;-72
2022/03/24 11:33:14;;;;;;;26.13;18.30;;;;;;;;;;4970210;28;20448;-71
2022/03/24 11:35:40;;;;;;;24.60;18.93;;;;;;;;;;4970271;28;20277;-72
2022/03/24 11:38:06;;;;;;;26.30;20.30;;;;;;;;;;4969739;28;20468;-70
2022/03/24 11:40:32;;;;;;;24.77;19.50;;;;;;;;;;4968622;28;20210;-70
2022/03/24 11:43:05;;;;;;;28.40;20.87;;;;;;;;;;4974435;28;21018;-71
2022/03/24 11:45:35;;;;;;;27.20;19.50;;;;;;;;;;4976359;28;20440;-71
2022/03/24 11:48:07;;;;;;;25.27;19.83;;;;;;;;;;4977264;28;20484;-72
2022/03/24 11:50:34;;;;;;;28.63;18.43;;;;;;;;;;4973029;28;21011;-71
2022/03/24 11:53:28;;;;;;;23.20;17.67;;;;;;;;;;4974227;28;20524;-72
2022/03/24 11:55:59;;;;;;;24.10;19.60;;;;;;;;;;4947041;28;20480;-72
2022/03/24 11:58:31;;;;;;;25.67;20.13;;;;;;;;;;4965657;28;20796;-72
2022/03/24 12:01:16;;;;;;;27.43;21.10;;;;;;;;;;4967457;28;20539;-72
2022/03/24 12:03:51;;;;;;;27.23;20.23;;;;;;;;;;4966604;28;20870;-72
2022/03/24 12:06:18;;;;;;;27.00;20.80;;;;;;;;;;4972645;28;21278;-71
2022/03/24 12:08:50;;;;;;;24.90;19.90;;;;;;;;;;4972564;28;20443;-72
2022/03/24 12:11:50;;;;;;;25.00;20.50;;;;;;;;;;4972088;28;20472;-72
2022/03/24 12:14:37;;;;;;;28.10;20.73;;;;;;;;;;4941597;28;20813;-72
2022/03/24 12:17:05;;;;;;;34.60;21.50;;;;;;;;;;4964167;28;20477;-73
2022/03/24 12:19:31;;;;;;;28.87;21.60;;;;;;;;;;4971283;28;20428;-72
2022/03/24 12:21:57;;;;;;;24.47;19.90;;;;;;;;;;4974620;28;20469;-72
2022/03/24 12:24:22;;;;;;;30.80;23.17;;;;;;;;;;4973919;28;20182;-72
2022/03/24 12:26:55;;;;;;;35.50;24.53;;;;;;;;;;4977181;28;20464;-73
2022/03/24 12:29:22;;;;;;;32.30;24.57;;;;;;;;;;4971509;28;20178;-72
2022/03/24 12:32:02;;;;;;;29.23;21.37;;;;;;;;;;4968667;28;20467;-73
2022/03/24 12:34:29;;;;;;;26.13;20.80;;;;;;;;;;4971390;28;20440;-73
2022/03/24 12:36:54;;;;;;;29.73;21.63;;;;;;;;;;4966690;28;20514;-72
2022/03/24 12:39:33;;;;;;;32.53;24.50;;;;;;;;;;4970735;28;20436;-73
2022/03/24 12:42:16;;;;;;;37.73;26.33;;;;;;;;;;4969577;28;20217;-72
2022/03/24 12:44:47;;;;;;;32.00;23.67;;;;;;;;;;4968560;28;20421;-72
2022/03/24 12:47:28;;;;;;;31.07;24.80;;;;;;;;;;4968701;28;20483;-72
2022/03/24 12:49:55;;;;;;;40.60;32.17;;;;;;;;;;4972097;28;20449;-73
2022/03/24 12:52:21;;;;;;;45.33;30.57;;;;;;;;;;4968936;28;20523;-72
2022/03/24 12:54:50;;;;;;;39.63;31.23;;;;;;;;;;4965995;28;20972;-72
2022/03/24 12:57:26;;;;;;;36.30;29.87;;;;;;;;;;4972080;28;20202;-73
2022/03/24 12:59:52;;;;;;;36.93;29.73;;;;;;;;;;4974641;28;20424;-73
2022/03/24 13:02:18;;;;;;;40.90;32.80;;;;;;;;;;4975393;28;20475;-73
2022/03/24 13:04:50;;;;;;;38.63;29.93;;;;;;;;;;4969868;28;20274;-72
2022/03/24 13:07:24;;;;;;;37.07;29.40;;;;;;;;;;4986280;23;20229;-70
2022/03/24 13:10:02;;;;;;;42.60;32.17;;;;;;;;;;4983180;28;20454;-70
2022/03/24 13:12:28;;;;;;;39.90;32.07;;;;;;;;;;4985908;28;20990;-70
2022/03/24 13:14:53;;;;;;;37.30;29.93;;;;;;;;;;4985119;28;20450;-70
2022/03/24 13:17:19;;;;;;;33.30;27.37;;;;;;;;;;4982078;28;20283;-69
2022/03/24 13:19:48;;;;;;;34.27;27.60;;;;;;;;;;4970968;28;20185;-70
2022/03/24 13:22:25;;;;;;;35.13;28.53;;;;;;;;;;4974223;28;20519;-70
2022/03/24 13:25:07;;;;;;;33.87;28.00;;;;;;;;;;4972123;28;20475;-71
2022/03/24 13:27:36;;;;;;;33.00;27.07;;;;;;;;;;4973097;28;20457;-70
2022/03/24 13:30:05;;;;;;;33.20;28.13;;;;;;;;;;4972398;28;20449;-71
2022/03/24 13:32:31;;;;;;;37.80;29.53;;;;;;;;;;4979127;28;20445;-70
2022/03/24 13:34:59;;;;;;;37.70;29.47;;;;;;;;;;4972535;28;21084;-70
2022/03/24 13:37:25;;;;;;;38.93;29.53;;;;;;;;;;4972302;28;20221;-71
2022/03/24 13:39:55;;;;;;;34.03;29.10;;;;;;;;;;4963173;28;21051;-71
2022/03/24 13:42:21;;;;;;;38.00;29.27;;;;;;;;;;4980039;28;20640;-71
2022/03/24 13:44:47;;;;;;;38.60;29.63;;;;;;;;;;4975855;28;20452;-70
2022/03/24 13:47:14;;;;;;;34.40;28.43;;;;;;;;;;4967692;28;20460;-71
2022/03/24 13:49:40;;;;;;;39.57;29.00;;;;;;;;;;4969644;28;20437;-69
2022/03/24 13:52:06;;;;;;;34.93;28.90;;;;;;;;;;4971136;28;20972;-68
2022/03/24 13:54:31;;;;;;;37.50;29.90;;;;;;;;;;4969609;28;20209;-69
2022/03/24 13:56:57;;;;;;;33.37;28.43;;;;;;;;;;4962277;28;21472;-68
2022/03/24 13:59:32;;;;;;;42.97;32.00;;;;;;;;;;4964527;28;20252;-68
2022/03/24 14:01:58;;;;;;;40.67;31.10;;;;;;;;;;4969451;28;20238;-70
2022/03/24 14:04:23;;;;;;;37.13;29.53;;;;;;;;;;4969859;28;20445;-68
2022/03/24 14:07:05;;;;;;;37.10;29.03;;;;;;;;;;4964257;28;20478;-69
2022/03/24 14:09:31;;;;;;;36.30;28.23;;;;;;;;;;4965241;28;20276;-69
2022/03/24 14:12:03;;;;;;;35.90;28.77;;;;;;;;;;4967690;28;20439;-69
2022/03/24 14:14:28;;;;;;;39.83;29.30;;;;;;;;;;4966746;28;20197;-69